sensor_id;sensor_type;location;lat;lon;timestamp;temperature;humidity
69031;DHT22;56083;48.774;8.942;2023-04-01T00:00:16;7.80;99.90
69031;DHT22;56083;48.774;8.942;2023-04-01T00:02:42;7.90;99.90
69031;DHT22;56083;48.774;8.942;2023-04-01T00:05:08;7.90;99.90
69031;DHT22;56083;48.774;8.942;2023-04-01T00:07:36;8.00;99.90
69031;DHT22;56083;48.774;8.942;2023-04-01T00:10:02;8.00;99.90
69031;DHT22;56083;48.774;8.942;2023-04-01T00:12:28;8.10;99.90
69031;DHT22;56083;48.774;8.942;2023-04-01T00:14:54;8.10;99.90
69031;DHT22;56083;48.774;8.942;2023-04-01T00:17:19;8.10;99.90
69031;DHT22;56083;48.774;8.942;2023-04-01T00:19:45;8.10;99.90
69031;DHT22;56083;48.774;8.942;2023-04-01T00:22:11;8.10;99.90
69031;DHT22;56083;48.774;8.942;2023-04-01T00:24:38;8.00;99.90
69031;DHT22;56083;48.774;8.942;2023-04-01T00:27:03;8.00;99.90
69031;DHT22;56083;48.774;8.942;2023-04-01T00:29:29;7.90;99.90
69031;DHT22;56083;48.774;8.942;2023-04-01T00:31:59;8.00;99.90
69031;DHT22;56083;48.774;8.942;2023-04-01T00:34:24;8.00;99.90
69031;DHT22;56083;48.774;8.942;2023-04-01T00:36:51;8.00;99.90
69031;DHT22;56083;48.774;8.942;2023-04-01T00:39:20;8.10;99.90
69031;DHT22;56083;48.774;8.942;2023-04-01T00:41:46;8.00;99.90
69031;DHT22;56083;48.774;8.942;2023-04-01T00:46:41;7.70;99.90
69031;DHT22;56083;48.774;8.942;2023-04-01T00:49:07;7.50;99.90
69031;DHT22;56083;48.774;8.942;2023-04-01T00:51:33;7.50;99.90
69031;DHT22;56083;48.774;8.942;2023-04-01T00:54:02;7.40;99.90
69031;DHT22;56083;48.774;8.942;2023-04-01T00:56:34;7.40;99.90
69031;DHT22;56083;48.774;8.942;2023-04-01T00:59:22;7.40;99.90
69031;DHT22;56083;48.774;8.942;2023-04-01T01:01:49;7.30;99.90
69031;DHT22;56083;48.774;8.942;2023-04-01T01:04:27;7.30;99.90
69031;DHT22;56083;48.774;8.942;2023-04-01T01:06:59;7.30;99.90
69031;DHT22;56083;48.774;8.942;2023-04-01T01:12:22;7.30;99.90
69031;DHT22;56083;48.774;8.942;2023-04-01T01:17:31;7.30;99.90
69031;DHT22;56083;48.774;8.942;2023-04-01T01:20:24;7.30;99.90
69031;DHT22;56083;48.774;8.942;2023-04-01T01:30:57;7.30;99.90
69031;DHT22;56083;48.774;8.942;2023-04-01T01:33:49;7.30;99.90
69031;DHT22;56083;48.774;8.942;2023-04-01T01:36:19;7.30;99.90
69031;DHT22;56083;48.774;8.942;2023-04-01T01:38:48;7.30;99.90
69031;DHT22;56083;48.774;8.942;2023-04-01T01:41:15;7.30;99.90
69031;DHT22;56083;48.774;8.942;2023-04-01T01:43:46;7.40;99.90
69031;DHT22;56083;48.774;8.942;2023-04-01T01:46:16;7.40;99.90
69031;DHT22;56083;48.774;8.942;2023-04-01T01:48:43;7.30;99.90
69031;DHT22;56083;48.774;8.942;2023-04-01T01:51:11;7.30;99.90
69031;DHT22;56083;48.774;8.942;2023-04-01T01:53:36;7.30;99.90
69031;DHT22;56083;48.774;8.942;2023-04-01T01:56:03;7.30;99.90
69031;DHT22;56083;48.774;8.942;2023-04-01T01:58:32;7.30;99.90
69031;DHT22;56083;48.774;8.942;2023-04-01T02:01:07;7.30;99.90
69031;DHT22;56083;48.774;8.942;2023-04-01T02:03:37;7.30;99.90
69031;DHT22;56083;48.774;8.942;2023-04-01T02:06:07;7.30;99.90
69031;DHT22;56083;48.774;8.942;2023-04-01T02:08:49;7.30;99.90
69031;DHT22;56083;48.774;8.942;2023-04-01T02:11:19;7.30;99.90
69031;DHT22;56083;48.774;8.942;2023-04-01T02:13:54;7.40;99.90
69031;DHT22;56083;48.774;8.942;2023-04-01T02:16:33;7.30;99.90
69031;DHT22;56083;48.774;8.942;2023-04-01T02:19:01;7.30;99.90
69031;DHT22;56083;48.774;8.942;2023-04-01T02:21:30;7.20;99.90
69031;DHT22;56083;48.774;8.942;2023-04-01T02:23:58;7.20;99.90
69031;DHT22;56083;48.774;8.942;2023-04-01T02:26:26;7.20;99.90
69031;DHT22;56083;48.774;8.942;2023-04-01T02:28:54;7.20;99.90
69031;DHT22;56083;48.774;8.942;2023-04-01T02:31:21;7.20;99.90
69031;DHT22;56083;48.774;8.942;2023-04-01T02:33:47;7.20;99.90
69031;DHT22;56083;48.774;8.942;2023-04-01T02:36:14;7.20;99.90
69031;DHT22;56083;48.774;8.942;2023-04-01T02:38:41;7.20;99.90
69031;DHT22;56083;48.774;8.942;2023-04-01T02:41:07;7.10;99.90
69031;DHT22;56083;48.774;8.942;2023-04-01T02:43:33;7.10;99.90
69031;DHT22;56083;48.774;8.942;2023-04-01T02:45:59;7.20;99.90
69031;DHT22;56083;48.774;8.942;2023-04-01T02:48:25;7.20;99.90
69031;DHT22;56083;48.774;8.942;2023-04-01T02:50:50;7.30;99.90
69031;DHT22;56083;48.774;8.942;2023-04-01T02:53:16;7.20;99.90
69031;DHT22;56083;48.774;8.942;2023-04-01T02:55:42;7.20;99.90
69031;DHT22;56083;48.774;8.942;2023-04-01T02:58:07;7.20;99.90
69031;DHT22;56083;48.774;8.942;2023-04-01T03:00:33;7.30;99.90
69031;DHT22;56083;48.774;8.942;2023-04-01T03:02:59;7.30;99.90
69031;DHT22;56083;48.774;8.942;2023-04-01T03:05:25;7.20;99.90
69031;DHT22;56083;48.774;8.942;2023-04-01T03:07:51;7.20;99.90
69031;DHT22;56083;48.774;8.942;2023-04-01T03:10:16;7.20;99.90
69031;DHT22;56083;48.774;8.942;2023-04-01T03:12:42;7.10;99.90
69031;DHT22;56083;48.774;8.942;2023-04-01T03:15:11;7.10;99.90
69031;DHT22;56083;48.774;8.942;2023-04-01T03:17:37;7.00;99.90
69031;DHT22;56083;48.774;8.942;2023-04-01T03:20:03;7.00;99.90
69031;DHT22;56083;48.774;8.942;2023-04-01T03:22:30;6.90;99.90
69031;DHT22;56083;48.774;8.942;2023-04-01T03:24:56;7.00;99.90
69031;DHT22;56083;48.774;8.942;2023-04-01T03:27:21;7.00;99.90
69031;DHT22;56083;48.774;8.942;2023-04-01T03:29:47;7.10;99.90
69031;DHT22;56083;48.774;8.942;2023-04-01T03:32:13;7.10;99.90
69031;DHT22;56083;48.774;8.942;2023-04-01T03:34:38;7.10;99.90
69031;DHT22;56083;48.774;8.942;2023-04-01T03:37:04;7.20;99.90
69031;DHT22;56083;48.774;8.942;2023-04-01T03:39:31;7.20;99.90
69031;DHT22;56083;48.774;8.942;2023-04-01T03:41:56;7.20;99.90
69031;DHT22;56083;48.774;8.942;2023-04-01T03:44:22;7.10;99.90
69031;DHT22;56083;48.774;8.942;2023-04-01T03:46:47;7.20;99.90
69031;DHT22;56083;48.774;8.942;2023-04-01T03:49:13;7.20;99.90
69031;DHT22;56083;48.774;8.942;2023-04-01T03:51:41;7.20;99.90
69031;DHT22;56083;48.774;8.942;2023-04-01T03:54:07;7.20;99.90
69031;DHT22;56083;48.774;8.942;2023-04-01T03:56:33;7.20;99.90
69031;DHT22;56083;48.774;8.942;2023-04-01T03:59:02;7.20;99.90
69031;DHT22;56083;48.774;8.942;2023-04-01T04:01:28;7.20;99.90
69031;DHT22;56083;48.774;8.942;2023-04-01T04:03:55;7.20;99.90
69031;DHT22;56083;48.774;8.942;2023-04-01T04:06:22;7.20;99.90
69031;DHT22;56083;48.774;8.942;2023-04-01T04:08:47;7.20;99.90
69031;DHT22;56083;48.774;8.942;2023-04-01T04:11:13;7.20;99.90
69031;DHT22;56083;48.774;8.942;2023-04-01T04:13:40;7.20;99.90
69031;DHT22;56083;48.774;8.942;2023-04-01T04:16:06;7.20;99.90
69031;DHT22;56083;48.774;8.942;2023-04-01T04:18:32;7.20;99.90
69031;DHT22;56083;48.774;8.942;2023-04-01T04:20:58;7.20;99.90
69031;DHT22;56083;48.774;8.942;2023-04-01T04:23:24;7.10;99.90
69031;DHT22;56083;48.774;8.942;2023-04-01T04:25:54;7.10;99.90
69031;DHT22;56083;48.774;8.942;2023-04-01T04:30:54;7.10;99.90
69031;DHT22;56083;48.774;8.942;2023-04-01T04:33:21;7.10;99.90
69031;DHT22;56083;48.774;8.942;2023-04-01T04:35:46;7.10;99.90
69031;DHT22;56083;48.774;8.942;2023-04-01T04:38:12;7.10;99.90
69031;DHT22;56083;48.774;8.942;2023-04-01T04:40:38;7.00;99.90
69031;DHT22;56083;48.774;8.942;2023-04-01T04:43:04;7.00;99.90
69031;DHT22;56083;48.774;8.942;2023-04-01T04:45:30;7.00;99.90
69031;DHT22;56083;48.774;8.942;2023-04-01T04:47:56;7.10;99.90
69031;DHT22;56083;48.774;8.942;2023-04-01T04:50:22;7.10;99.90
69031;DHT22;56083;48.774;8.942;2023-04-01T04:52:48;7.10;99.90
69031;DHT22;56083;48.774;8.942;2023-04-01T04:55:14;7.10;99.90
69031;DHT22;56083;48.774;8.942;2023-04-01T04:57:41;7.10;99.90
69031;DHT22;56083;48.774;8.942;2023-04-01T05:00:07;7.10;99.90
69031;DHT22;56083;48.774;8.942;2023-04-01T05:02:33;7.20;99.90
69031;DHT22;56083;48.774;8.942;2023-04-01T05:04:59;7.20;99.90
69031;DHT22;56083;48.774;8.942;2023-04-01T05:07:25;7.30;99.90
69031;DHT22;56083;48.774;8.942;2023-04-01T05:09:51;7.30;99.90
69031;DHT22;56083;48.774;8.942;2023-04-01T05:12:16;7.30;99.90
69031;DHT22;56083;48.774;8.942;2023-04-01T05:14:42;7.30;99.90
69031;DHT22;56083;48.774;8.942;2023-04-01T05:17:10;7.30;99.90
69031;DHT22;56083;48.774;8.942;2023-04-01T05:19:36;7.30;99.90
69031;DHT22;56083;48.774;8.942;2023-04-01T05:22:01;7.40;99.90
69031;DHT22;56083;48.774;8.942;2023-04-01T05:24:27;7.40;99.90
69031;DHT22;56083;48.774;8.942;2023-04-01T05:26:53;7.50;99.90
69031;DHT22;56083;48.774;8.942;2023-04-01T05:29:18;7.60;99.90
69031;DHT22;56083;48.774;8.942;2023-04-01T05:31:44;7.60;99.90
69031;DHT22;56083;48.774;8.942;2023-04-01T05:34:10;7.60;99.90
69031;DHT22;56083;48.774;8.942;2023-04-01T05:36:36;7.70;99.90
69031;DHT22;56083;48.774;8.942;2023-04-01T05:39:02;7.70;99.90
69031;DHT22;56083;48.774;8.942;2023-04-01T05:41:28;7.80;99.90
69031;DHT22;56083;48.774;8.942;2023-04-01T05:43:54;7.80;99.90
69031;DHT22;56083;48.774;8.942;2023-04-01T05:46:20;7.80;99.90
69031;DHT22;56083;48.774;8.942;2023-04-01T05:48:45;7.90;99.90
69031;DHT22;56083;48.774;8.942;2023-04-01T05:51:13;7.90;99.90
69031;DHT22;56083;48.774;8.942;2023-04-01T05:53:40;8.00;99.90
69031;DHT22;56083;48.774;8.942;2023-04-01T05:56:06;8.00;99.90
69031;DHT22;56083;48.774;8.942;2023-04-01T05:58:32;8.00;99.90
69031;DHT22;56083;48.774;8.942;2023-04-01T06:01:09;8.10;99.90
69031;DHT22;56083;48.774;8.942;2023-04-01T06:03:36;8.10;99.90
69031;DHT22;56083;48.774;8.942;2023-04-01T06:06:02;8.10;99.90
69031;DHT22;56083;48.774;8.942;2023-04-01T06:08:30;8.10;99.90
69031;DHT22;56083;48.774;8.942;2023-04-01T06:11:32;8.20;99.90
69031;DHT22;56083;48.774;8.942;2023-04-01T06:14:19;8.20;99.90
69031;DHT22;56083;48.774;8.942;2023-04-01T06:17:12;8.20;99.90
69031;DHT22;56083;48.774;8.942;2023-04-01T06:19:47;8.20;99.90
69031;DHT22;56083;48.774;8.942;2023-04-01T06:36:49;8.00;99.90
69031;DHT22;56083;48.774;8.942;2023-04-01T06:39:42;7.90;99.90
69031;DHT22;56083;48.774;8.942;2023-04-01T06:42:20;7.80;99.90
69031;DHT22;56083;48.774;8.942;2023-04-01T06:48:06;7.70;99.90
69031;DHT22;56083;48.774;8.942;2023-04-01T06:56:12;7.70;99.90
69031;DHT22;56083;48.774;8.942;2023-04-01T06:58:48;7.70;99.90
69031;DHT22;56083;48.774;8.942;2023-04-01T07:01:42;7.70;99.90
69031;DHT22;56083;48.774;8.942;2023-04-01T07:04:30;7.70;99.90
69031;DHT22;56083;48.774;8.942;2023-04-01T07:07:03;7.70;99.90
69031;DHT22;56083;48.774;8.942;2023-04-01T07:09:39;7.70;99.90
69031;DHT22;56083;48.774;8.942;2023-04-01T07:12:18;7.60;99.90
69031;DHT22;56083;48.774;8.942;2023-04-01T07:14:48;7.60;99.90
69031;DHT22;56083;48.774;8.942;2023-04-01T07:17:20;7.60;99.90
69031;DHT22;56083;48.774;8.942;2023-04-01T07:19:50;7.60;99.90
69031;DHT22;56083;48.774;8.942;2023-04-01T07:22:33;7.50;99.90
69031;DHT22;56083;48.774;8.942;2023-04-01T07:25:25;7.60;99.90
69031;DHT22;56083;48.774;8.942;2023-04-01T07:27:55;7.50;99.90
69031;DHT22;56083;48.774;8.942;2023-04-01T07:30:23;7.60;99.90
69031;DHT22;56083;48.774;8.942;2023-04-01T07:33:15;7.60;99.90
69031;DHT22;56083;48.774;8.942;2023-04-01T07:38:14;7.80;99.90
69031;DHT22;56083;48.774;8.942;2023-04-01T07:54:28;8.00;99.90
69031;DHT22;56083;48.774;8.942;2023-04-01T08:02:44;8.00;99.90
69031;DHT22;56083;48.774;8.942;2023-04-01T08:05:29;8.00;99.90
69031;DHT22;56083;48.774;8.942;2023-04-01T08:08:14;8.10;99.90
69031;DHT22;56083;48.774;8.942;2023-04-01T08:19:27;8.00;99.90
69031;DHT22;56083;48.774;8.942;2023-04-01T08:22:00;8.00;99.90
69031;DHT22;56083;48.774;8.942;2023-04-01T08:24:41;7.90;99.90
69031;DHT22;56083;48.774;8.942;2023-04-01T08:27:41;7.80;99.90
69031;DHT22;56083;48.774;8.942;2023-04-01T08:30:23;7.70;99.90
69031;DHT22;56083;48.774;8.942;2023-04-01T08:32:59;7.70;99.90
69031;DHT22;56083;48.774;8.942;2023-04-01T08:35:27;7.60;99.90
69031;DHT22;56083;48.774;8.942;2023-04-01T08:37:57;7.50;99.90
69031;DHT22;56083;48.774;8.942;2023-04-01T08:41:00;7.50;99.90
69031;DHT22;56083;48.774;8.942;2023-04-01T08:43:49;7.40;99.90
69031;DHT22;56083;48.774;8.942;2023-04-01T08:49:13;7.30;99.90
69031;DHT22;56083;48.774;8.942;2023-04-01T08:52:04;7.30;99.90
69031;DHT22;56083;48.774;8.942;2023-04-01T09:00:33;7.60;99.90
69031;DHT22;56083;48.774;8.942;2023-04-01T09:03:37;7.70;99.90
69031;DHT22;56083;48.774;8.942;2023-04-01T09:06:40;7.70;99.90
69031;DHT22;56083;48.774;8.942;2023-04-01T09:09:28;7.80;99.90
69031;DHT22;56083;48.774;8.942;2023-04-01T09:12:30;7.90;99.90
69031;DHT22;56083;48.774;8.942;2023-04-01T09:26:10;8.30;99.90
69031;DHT22;56083;48.774;8.942;2023-04-01T09:34:41;8.20;99.90
69031;DHT22;56083;48.774;8.942;2023-04-01T09:42:43;8.20;99.90
69031;DHT22;56083;48.774;8.942;2023-04-01T10:03:49;8.30;99.90
69031;DHT22;56083;48.774;8.942;2023-04-01T10:09:33;8.60;99.90
69031;DHT22;56083;48.774;8.942;2023-04-01T10:21:29;9.20;99.90
69031;DHT22;56083;48.774;8.942;2023-04-01T10:25:35;9.40;99.90
69031;DHT22;56083;48.774;8.942;2023-04-01T10:27:55;9.60;99.90
69031;DHT22;56083;48.774;8.942;2023-04-01T10:44:46;9.70;99.90
69031;DHT22;56083;48.774;8.942;2023-04-01T10:55:35;9.60;99.90
69031;DHT22;56083;48.774;8.942;2023-04-01T10:58:10;9.60;99.90
69031;DHT22;56083;48.774;8.942;2023-04-01T11:06:13;9.40;99.90
69031;DHT22;56083;48.774;8.942;2023-04-01T11:09:10;9.40;99.90
69031;DHT22;56083;48.774;8.942;2023-04-01T11:15:18;9.40;99.90
69031;DHT22;56083;48.774;8.942;2023-04-01T11:18:20;9.40;99.90
69031;DHT22;56083;48.774;8.942;2023-04-01T11:29:35;10.10;99.90
69031;DHT22;56083;48.774;8.942;2023-04-01T11:37:52;10.20;99.90
69031;DHT22;56083;48.774;8.942;2023-04-01T11:40:27;10.30;99.90
69031;DHT22;56083;48.774;8.942;2023-04-01T11:54:42;10.00;99.90
69031;DHT22;56083;48.774;8.942;2023-04-01T11:57:18;9.90;99.90
69031;DHT22;56083;48.774;8.942;2023-04-01T12:02:42;9.90;99.90
69031;DHT22;56083;48.774;8.942;2023-04-01T12:05:36;9.90;99.90
69031;DHT22;56083;48.774;8.942;2023-04-01T12:11:09;10.00;99.90
69031;DHT22;56083;48.774;8.942;2023-04-01T12:16:27;10.10;99.90
69031;DHT22;56083;48.774;8.942;2023-04-01T12:21:38;10.30;99.90
69031;DHT22;56083;48.774;8.942;2023-04-01T12:32:39;10.70;99.90
69031;DHT22;56083;48.774;8.942;2023-04-01T12:40:45;10.70;99.90
69031;DHT22;56083;48.774;8.942;2023-04-01T12:43:26;10.70;99.90
69031;DHT22;56083;48.774;8.942;2023-04-01T12:51:28;10.40;99.90
69031;DHT22;56083;48.774;8.942;2023-04-01T12:54:11;10.60;99.90
69031;DHT22;56083;48.774;8.942;2023-04-01T12:57:07;10.40;99.90
69031;DHT22;56083;48.774;8.942;2023-04-01T13:15:37;10.10;99.90
69031;DHT22;56083;48.774;8.942;2023-04-01T13:21:17;10.30;99.90
69031;DHT22;56083;48.774;8.942;2023-04-01T13:26:55;10.50;99.90
69031;DHT22;56083;48.774;8.942;2023-04-01T13:29:28;10.50;99.90
69031;DHT22;56083;48.774;8.942;2023-04-01T13:37:30;10.40;99.90
69031;DHT22;56083;48.774;8.942;2023-04-01T13:42:51;10.40;99.90
69031;DHT22;56083;48.774;8.942;2023-04-01T13:48:24;10.30;99.90
69031;DHT22;56083;48.774;8.942;2023-04-01T14:02:41;10.20;99.90
69031;DHT22;56083;48.774;8.942;2023-04-01T14:05:24;10.10;99.90
69031;DHT22;56083;48.774;8.942;2023-04-01T14:13:31;9.80;99.90
69031;DHT22;56083;48.774;8.942;2023-04-01T14:16:04;9.80;99.90
69031;DHT22;56083;48.774;8.942;2023-04-01T14:21:43;9.70;99.90
69031;DHT22;56083;48.774;8.942;2023-04-01T14:24:20;9.70;99.90
69031;DHT22;56083;48.774;8.942;2023-04-01T14:27:31;9.70;99.90
69031;DHT22;56083;48.774;8.942;2023-04-01T14:36:41;9.70;99.90
69031;DHT22;56083;48.774;8.942;2023-04-01T14:47:51;9.70;99.90
69031;DHT22;56083;48.774;8.942;2023-04-01T14:50:24;9.80;99.90
69031;DHT22;56083;48.774;8.942;2023-04-01T14:55:48;9.80;99.90
69031;DHT22;56083;48.774;8.942;2023-04-01T14:58:16;9.70;99.90
69031;DHT22;56083;48.774;8.942;2023-04-01T15:03:48;9.60;99.90
69031;DHT22;56083;48.774;8.942;2023-04-01T15:06:43;9.50;99.90
69031;DHT22;56083;48.774;8.942;2023-04-01T15:09:20;9.50;99.90
69031;DHT22;56083;48.774;8.942;2023-04-01T15:12:07;9.60;99.90
69031;DHT22;56083;48.774;8.942;2023-04-01T15:20:53;9.70;99.90
69031;DHT22;56083;48.774;8.942;2023-04-01T15:31:25;9.70;99.90
69031;DHT22;56083;48.774;8.942;2023-04-01T15:37:01;9.80;99.90
69031;DHT22;56083;48.774;8.942;2023-04-01T15:42:46;9.90;99.90
69031;DHT22;56083;48.774;8.942;2023-04-01T15:45:49;9.90;99.90
69031;DHT22;56083;48.774;8.942;2023-04-01T15:48:55;9.80;99.90
69031;DHT22;56083;48.774;8.942;2023-04-01T15:57:25;9.70;99.90
69031;DHT22;56083;48.774;8.942;2023-04-01T16:00:21;9.70;99.90
69031;DHT22;56083;48.774;8.942;2023-04-01T16:11:22;9.50;99.90
69031;DHT22;56083;48.774;8.942;2023-04-01T16:14:26;9.50;99.90
69031;DHT22;56083;48.774;8.942;2023-04-01T16:17:24;9.40;99.90
69031;DHT22;56083;48.774;8.942;2023-04-01T16:22:39;9.50;99.90
69031;DHT22;56083;48.774;8.942;2023-04-01T16:25:40;9.60;99.90
69031;DHT22;56083;48.774;8.942;2023-04-01T16:28:22;9.60;99.90
69031;DHT22;56083;48.774;8.942;2023-04-01T16:31:26;9.60;99.90
69031;DHT22;56083;48.774;8.942;2023-04-01T16:36:47;9.60;99.90
69031;DHT22;56083;48.774;8.942;2023-04-01T16:39:30;9.60;99.90
69031;DHT22;56083;48.774;8.942;2023-04-01T16:44:59;9.70;99.90
69031;DHT22;56083;48.774;8.942;2023-04-01T16:47:32;9.80;99.90
69031;DHT22;56083;48.774;8.942;2023-04-01T16:50:26;9.90;99.90
69031;DHT22;56083;48.774;8.942;2023-04-01T16:53:17;10.00;99.90
69031;DHT22;56083;48.774;8.942;2023-04-01T16:58:36;10.00;99.90
69031;DHT22;56083;48.774;8.942;2023-04-01T17:01:21;9.90;99.90
69031;DHT22;56083;48.774;8.942;2023-04-01T17:03:53;9.90;99.90
69031;DHT22;56083;48.774;8.942;2023-04-01T17:06:45;9.80;99.90
69031;DHT22;56083;48.774;8.942;2023-04-01T17:12:12;9.80;99.90
69031;DHT22;56083;48.774;8.942;2023-04-01T17:20:55;9.60;99.90
69031;DHT22;56083;48.774;8.942;2023-04-01T17:23:32;9.50;99.90
69031;DHT22;56083;48.774;8.942;2023-04-01T17:26:14;9.40;99.90
69031;DHT22;56083;48.774;8.942;2023-04-01T17:39:30;9.40;99.90
69031;DHT22;56083;48.774;8.942;2023-04-01T17:47:41;9.20;99.90
69031;DHT22;56083;48.774;8.942;2023-04-01T17:50:30;9.00;99.90
69031;DHT22;56083;48.774;8.942;2023-04-01T17:56:32;8.70;99.90
69031;DHT22;56083;48.774;8.942;2023-04-01T18:02:01;8.40;99.90
69031;DHT22;56083;48.774;8.942;2023-04-01T18:05:00;8.40;99.90
69031;DHT22;56083;48.774;8.942;2023-04-01T18:08:03;8.20;99.90
69031;DHT22;56083;48.774;8.942;2023-04-01T18:10:41;8.10;99.90
69031;DHT22;56083;48.774;8.942;2023-04-01T18:21:51;8.00;99.90
69031;DHT22;56083;48.774;8.942;2023-04-01T18:32:17;7.60;99.90
69031;DHT22;56083;48.774;8.942;2023-04-01T18:38:07;7.40;99.90
69031;DHT22;56083;48.774;8.942;2023-04-01T18:40:42;7.40;99.90
69031;DHT22;56083;48.774;8.942;2023-04-01T18:43:30;7.30;99.90
69031;DHT22;56083;48.774;8.942;2023-04-01T18:51:48;7.10;99.90
69031;DHT22;56083;48.774;8.942;2023-04-01T18:54:23;7.10;99.90
69031;DHT22;56083;48.774;8.942;2023-04-01T18:57:02;7.10;99.90
69031;DHT22;56083;48.774;8.942;2023-04-01T18:59:49;7.00;99.90
69031;DHT22;56083;48.774;8.942;2023-04-01T19:02:38;7.00;99.90
69031;DHT22;56083;48.774;8.942;2023-04-01T19:05:11;6.90;99.90
69031;DHT22;56083;48.774;8.942;2023-04-01T19:07:44;6.90;99.90
69031;DHT22;56083;48.774;8.942;2023-04-01T19:15:22;6.70;99.90
69031;DHT22;56083;48.774;8.942;2023-04-01T19:20:43;6.80;99.90
69031;DHT22;56083;48.774;8.942;2023-04-01T19:25:57;6.80;99.90
69031;DHT22;56083;48.774;8.942;2023-04-01T19:41:44;7.10;99.90
69031;DHT22;56083;48.774;8.942;2023-04-01T19:47:22;7.00;99.90
69031;DHT22;56083;48.774;8.942;2023-04-01T19:52:46;7.00;99.90
69031;DHT22;56083;48.774;8.942;2023-04-01T19:58:17;7.10;99.90
69031;DHT22;56083;48.774;8.942;2023-04-01T20:00:52;7.30;99.90
69031;DHT22;56083;48.774;8.942;2023-04-01T20:03:51;7.40;99.90
69031;DHT22;56083;48.774;8.942;2023-04-01T20:12:07;7.50;99.90
69031;DHT22;56083;48.774;8.942;2023-04-01T20:14:38;7.60;99.90
69031;DHT22;56083;48.774;8.942;2023-04-01T20:17:20;7.60;99.90
69031;DHT22;56083;48.774;8.942;2023-04-01T20:20:00;7.60;99.90
69031;DHT22;56083;48.774;8.942;2023-04-01T20:25:38;7.70;99.90
69031;DHT22;56083;48.774;8.942;2023-04-01T20:28:20;7.70;99.90
69031;DHT22;56083;48.774;8.942;2023-04-01T20:42:01;7.80;99.90
69031;DHT22;56083;48.774;8.942;2023-04-01T20:45:06;7.70;99.90
69031;DHT22;56083;48.774;8.942;2023-04-01T20:47:55;7.70;99.90
69031;DHT22;56083;48.774;8.942;2023-04-01T20:50:31;7.60;99.90
69031;DHT22;56083;48.774;8.942;2023-04-01T21:09:52;7.30;99.90
69031;DHT22;56083;48.774;8.942;2023-04-01T21:17:46;7.30;99.90
69031;DHT22;56083;48.774;8.942;2023-04-01T21:34:48;7.20;99.90
69031;DHT22;56083;48.774;8.942;2023-04-01T21:40:04;7.20;99.90
69031;DHT22;56083;48.774;8.942;2023-04-01T22:00:19;7.00;99.90
69031;DHT22;56083;48.774;8.942;2023-04-01T22:05:51;7.00;99.90
69031;DHT22;56083;48.774;8.942;2023-04-01T22:11:27;7.20;99.90
69031;DHT22;56083;48.774;8.942;2023-04-01T22:14:28;7.20;99.90
69031;DHT22;56083;48.774;8.942;2023-04-01T22:16:59;7.30;99.90
69031;DHT22;56083;48.774;8.942;2023-04-01T22:19:52;7.30;99.90
69031;DHT22;56083;48.774;8.942;2023-04-01T22:22:30;7.30;99.90
69031;DHT22;56083;48.774;8.942;2023-04-01T22:25:34;7.30;99.90
69031;DHT22;56083;48.774;8.942;2023-04-01T22:28:09;7.40;99.90
69031;DHT22;56083;48.774;8.942;2023-04-01T22:33:54;7.30;99.90
69031;DHT22;56083;48.774;8.942;2023-04-01T22:38:57;7.20;99.90
69031;DHT22;56083;48.774;8.942;2023-04-01T22:44:42;7.10;99.90
69031;DHT22;56083;48.774;8.942;2023-04-01T22:50:15;7.00;99.90
69031;DHT22;56083;48.774;8.942;2023-04-01T22:52:46;6.90;99.90
69031;DHT22;56083;48.774;8.942;2023-04-01T22:55:21;6.80;99.90
69031;DHT22;56083;48.774;8.942;2023-04-01T22:57:49;6.80;99.90
69031;DHT22;56083;48.774;8.942;2023-04-01T23:00:45;6.80;99.90
69031;DHT22;56083;48.774;8.942;2023-04-01T23:03:21;6.80;99.90
69031;DHT22;56083;48.774;8.942;2023-04-01T23:05:51;6.70;99.90
69031;DHT22;56083;48.774;8.942;2023-04-01T23:11:11;6.60;99.90
69031;DHT22;56083;48.774;8.942;2023-04-01T23:13:44;6.50;99.90
69031;DHT22;56083;48.774;8.942;2023-04-01T23:16:14;6.40;99.90
69031;DHT22;56083;48.774;8.942;2023-04-01T23:18:54;6.40;99.90
69031;DHT22;56083;48.774;8.942;2023-04-01T23:21:44;6.30;99.90
69031;DHT22;56083;48.774;8.942;2023-04-01T23:24:25;6.20;99.90
69031;DHT22;56083;48.774;8.942;2023-04-01T23:26:57;6.20;99.90
69031;DHT22;56083;48.774;8.942;2023-04-01T23:29:24;6.20;99.90
69031;DHT22;56083;48.774;8.942;2023-04-01T23:32:02;6.20;99.90
69031;DHT22;56083;48.774;8.942;2023-04-01T23:34:33;6.20;99.90
69031;DHT22;56083;48.774;8.942;2023-04-01T23:37:05;6.20;99.90
69031;DHT22;56083;48.774;8.942;2023-04-01T23:39:34;6.10;99.90
69031;DHT22;56083;48.774;8.942;2023-04-01T23:42:13;6.10;99.90
69031;DHT22;56083;48.774;8.942;2023-04-01T23:44:39;6.20;99.90
69031;DHT22;56083;48.774;8.942;2023-04-01T23:47:06;6.10;99.90
69031;DHT22;56083;48.774;8.942;2023-04-01T23:49:40;6.20;99.90
69031;DHT22;56083;48.774;8.942;2023-04-01T23:52:17;6.10;99.90
69031;DHT22;56083;48.774;8.942;2023-04-01T23:54:49;6.10;99.90
69031;DHT22;56083;48.774;8.942;2023-04-01T23:57:43;6.10;99.90
